首页
METAR-TAF:

METAR-TAF

机场 :

桐艾機場

桐艾市, 泰国

纬度: 12-16-28N, 经度: 102-19-08E, 海拔: 32米

当前天气观测

该预报发布于43分钟前的05:00 UTC
风速12节,风向西转西南
温度 33°C
湿度 71%
气压 1009 hPa
能見度: 9000
少量云层高于1800英尺, 积雨云.
散云层高于2000英尺
附近有阵雨,

METAR: VTBO 220500Z 24012KT 9000 VCSH FEW018CB SCT020 33/27 Q1009

时间: 12:43 (05:43 UTC)

预报

该预报发布于6小时和43分钟前的23:00 UTC
预报有效从22日的 00点(UTC)到 22日的 24点(UTC)
风速节,风向
能見度: 4000
少量云层高于2000英尺
轻雾
成为
从 22日的 01点(UTC)到 22日的 03点(UTC)
风速10节,风向南转西南
能見度: 8000
成为
从 22日的 21点(UTC)到 22日的 23点(UTC)
风速节,风向
能見度: 4000
轻雾,

TAF: VTBO 212300Z 2200/2224 00000KT 4000 BR FEW020 BECMG 2201/2203 20010KT 8000 NSW BECMG 2221/2223 00000KT 4000 BR

超过4000个机场的气象观测和天气预报(METAR&TAF报告)。

可查询的气象台以黄色和红色小点在地图上表示。

将鼠标移到小点上方,可查看气象台名称。

然后点击查看天气观测和预报。

如需切换地图:点击带黑十字的绿色按钮放大地图;点击带横线的绿色按钮缩小地图;或者点击绿色箭头查看邻近地区的地图。


METAR-TAF: